Accident, MD

8:14 PM EST on November 23, 2014 (GMT -0500)
Garrett College/Deep Creek Lake | Change Station
CLOSE
Current Station
Personal Weather Station
Location: McHenry, MD
Elevation: 2600 ft
Nearby Weather Stations
Active Advisory: Wind Advisory

Elev 2600 ft 39.56 °N, 79.34 °W | Updated 3 minutes ago

Overcast
Overcast
49.0 °F
Feels Like 43 °F
N
16.0
Wind Variable Wind from SE
Gusts 27.0 mph

Today
High -- | Low -- °F
--% Chance of Precip.
Yesterday
High -- | Low -- °F
Precip. -- in
7:10 AM 4:56 PM
Waxing Crescent, 3% visible
Pressure 29.80 in
Visibility 10.0 miles
Clouds Mostly Cloudy 1500 ft
Mostly Cloudy 6000 ft
Overcast 7500 ft
Windchill 43 °F
Dew Point 43 °F
Humidity 81%
Rainfall 0.00 in
Snow Depth Not available.
UV 0.0 out of 12
Pollen .10 out of 12
Air Quality Not available.
Flu Activity Not available.
METAR K2G4 240100Z AUTO 15019G28KT 10SM BKN015 BKN060 OVC075 08/08 A2980 RMK AO1

More Conditions Fewer Conditions

Pressure 29.80 in
Visibility 10.0 miles
Clouds Mostly Cloudy 1500 ft
Mostly Cloudy 6000 ft
Overcast 7500 ft
Windchill 43 °F
Dew Point 43 °F
Humidity 81%
Rainfall 0.00 in
Snow Depth Not available.
UV 0.0 out of 12
Pollen .10 out of 12
Air Quality Not available.
Flu Activity Not available.
METAR K2G4 240100Z AUTO 15019G28KT 10SM BKN015 BKN060 OVC075 08/08 A2980 RMK AO1

More Conditions Fewer Conditions

10-Day Weather Forecast

Almanac

Astronomy

Nov. 23, 2014 Rise Set
Actual Time
Civil Twilight
Nautical Twilight
Astronomical Twilight
Moon
Length of Visible Light
Length of Day
Tomorrow will be .
, % of the Moon is Illuminated

Today's Extremes

State Highs State Lows

Community

WunderPhotos

Upload Photos

1,773,234 photos uploaded!

WunderBlogs® & News

Nearby

Air Quality

  Air Quality AQ Index Pollutant
Not available.

Snow Depth

Station Depth Elevation

Earthquake Activity

City Distance Mag. Time & Date
Minimum magnitude displayed is 2.5.

Coastal Water Temperatures

Place Temperature

Nearby Weather Stations